createdAt,value
2023-03-03T00:00:13.008Z,40.21
2023-03-03T00:02:40.591Z,40.38
2023-03-03T00:05:07.909Z,40.64
2023-03-03T00:07:35.068Z,40.45
2023-03-03T00:10:02.535Z,40.07
2023-03-03T00:12:30.233Z,40.12
2023-03-03T00:14:57.653Z,40.01
2023-03-03T00:17:26.300Z,39.96
2023-03-03T00:19:53.679Z,40.01
2023-03-03T00:22:30.883Z,39.66
2023-03-03T00:25:02.416Z,39.48
2023-03-03T00:27:30.622Z,39.47
2023-03-03T00:29:58.329Z,39.59
2023-03-03T00:32:27.471Z,39.78
2023-03-03T00:34:55.856Z,39.97
2023-03-03T00:37:33.952Z,39.88
2023-03-03T00:40:13.603Z,40.25
2023-03-03T00:42:40.763Z,39.92
2023-03-03T00:45:20.559Z,40.14
2023-03-03T00:47:47.858Z,39.55
2023-03-03T00:50:35.650Z,39.20
2023-03-03T00:53:04.420Z,39.65
2023-03-03T00:55:32.529Z,39.32
2023-03-03T00:57:59.861Z,39.72
2023-03-03T01:00:28.053Z,40.03
2023-03-03T01:02:55.667Z,40.11
2023-03-03T01:05:23.891Z,39.97
2023-03-03T01:07:51.112Z,39.99
2023-03-03T01:10:18.653Z,41.50
2023-03-03T01:12:45.857Z,40.97
2023-03-03T01:15:13.207Z,40.92
2023-03-03T01:17:41.649Z,40.33
2023-03-03T01:20:11.214Z,40.44
2023-03-03T01:22:38.426Z,40.57
2023-03-03T01:25:05.940Z,41.75
2023-03-03T01:27:34.574Z,41.81
2023-03-03T01:30:01.995Z,41.60
2023-03-03T01:32:30.044Z,41.77
2023-03-03T01:34:57.403Z,42.24
2023-03-03T01:37:24.580Z,41.68
2023-03-03T01:39:53.596Z,41.67
2023-03-03T01:42:21.017Z,42.12
2023-03-03T01:44:48.376Z,41.75
2023-03-03T01:47:22.571Z,41.38
2023-03-03T01:49:50.318Z,42.16
2023-03-03T01:52:21.369Z,43.00
2023-03-03T01:54:50.937Z,42.62
2023-03-03T01:57:19.737Z,42.40
2023-03-03T01:59:47.848Z,42.32
2023-03-03T02:02:15.088Z,42.13
2023-03-03T02:04:42.537Z,42.11
2023-03-03T02:07:11.692Z,41.72
2023-03-03T02:09:46.931Z,42.14
2023-03-03T02:12:15.357Z,41.87
2023-03-03T02:14:42.532Z,41.59
2023-03-03T02:17:09.699Z,41.74
2023-03-03T02:19:52.703Z,41.71
2023-03-03T02:22:21.971Z,41.85
2023-03-03T02:24:53.753Z,41.60
2023-03-03T02:27:21.138Z,41.61
2023-03-03T02:29:48.458Z,41.40
2023-03-03T02:32:15.936Z,41.54
2023-03-03T02:34:46.927Z,41.26
2023-03-03T02:37:14.185Z,40.95
2023-03-03T02:39:41.640Z,41.05
2023-03-03T02:42:09.051Z,40.87
2023-03-03T02:44:36.741Z,40.86
2023-03-03T02:47:04.218Z,40.84
2023-03-03T02:49:32.304Z,40.93
2023-03-03T02:51:59.900Z,41.01
2023-03-03T02:54:28.223Z,40.99
2023-03-03T02:56:55.387Z,41.02
2023-03-03T02:59:22.573Z,40.99
2023-03-03T03:01:50.222Z,41.10
2023-03-03T03:04:18.882Z,41.09
2023-03-03T03:06:46.596Z,40.99
2023-03-03T03:09:15.056Z,40.95
2023-03-03T03:11:42.827Z,40.91
2023-03-03T03:14:10.885Z,41.21
2023-03-03T03:16:38.574Z,41.04
2023-03-03T03:19:06.016Z,41.14
2023-03-03T03:21:33.778Z,41.14
2023-03-03T03:24:02.179Z,40.98
2023-03-03T03:26:31.385Z,41.13
2023-03-03T03:28:59.274Z,41.19
2023-03-03T03:31:26.843Z,40.95
2023-03-03T03:33:54.110Z,41.37
2023-03-03T03:36:24.665Z,40.77
2023-03-03T03:38:53.232Z,40.64
2023-03-03T03:41:20.472Z,40.45
2023-03-03T03:43:47.703Z,40.54
2023-03-03T03:46:15.377Z,40.52
2023-03-03T03:48:42.579Z,40.34
2023-03-03T03:51:11.332Z,41.42
2023-03-03T03:53:39.409Z,41.70
2023-03-03T03:56:06.759Z,41.18
2023-03-03T03:58:34.123Z,40.90
2023-03-03T04:01:05.267Z,40.96
2023-03-03T04:03:33.427Z,40.60
2023-03-03T04:06:01.180Z,40.39
2023-03-03T04:08:28.331Z,40.14
2023-03-03T04:10:56.230Z,40.07
2023-03-03T04:13:24.446Z,40.22
2023-03-03T04:15:51.783Z,40.59
2023-03-03T04:18:19.640Z,40.50
2023-03-03T04:20:47.044Z,40.39
2023-03-03T04:23:14.828Z,40.37
2023-03-03T04:25:42.522Z,40.31
2023-03-03T04:28:12.826Z,40.41
2023-03-03T04:30:40.277Z,40.58
2023-03-03T04:33:07.811Z,40.41
2023-03-03T04:35:36.815Z,40.79
2023-03-03T04:38:05.700Z,40.46
2023-03-03T04:40:33.942Z,41.02
2023-03-03T04:43:01.591Z,40.70
2023-03-03T04:45:28.935Z,40.65
2023-03-03T04:47:56.512Z,40.56
2023-03-03T04:50:23.720Z,40.47
2023-03-03T04:52:51.006Z,40.58
2023-03-03T04:55:18.703Z,40.72
2023-03-03T04:57:46.632Z,40.54
2023-03-03T05:00:14.019Z,40.46
2023-03-03T05:02:41.665Z,40.46
2023-03-03T05:05:10.632Z,40.69
2023-03-03T05:07:37.792Z,40.95
2023-03-03T05:10:05.752Z,40.62
2023-03-03T05:12:32.978Z,40.32
2023-03-03T05:15:00.097Z,40.14
2023-03-03T05:17:27.533Z,40.25
2023-03-03T05:19:57.306Z,40.23
2023-03-03T05:22:24.989Z,39.99
2023-03-03T05:24:52.532Z,39.81
2023-03-03T05:27:19.975Z,40.42
2023-03-03T05:29:47.188Z,40.06
2023-03-03T05:32:14.712Z,40.16
2023-03-03T05:34:42.024Z,40.24
2023-03-03T05:37:10.613Z,39.92
2023-03-03T05:39:38.092Z,39.91
2023-03-03T05:42:05.290Z,40.06
2023-03-03T05:44:32.438Z,40.07
2023-03-03T05:46:59.880Z,40.71
2023-03-03T05:49:27.665Z,40.38
2023-03-03T05:51:54.823Z,40.31
2023-03-03T05:54:22.274Z,40.13
2023-03-03T05:56:49.977Z,40.11
2023-03-03T05:59:17.620Z,39.91
2023-03-03T06:01:45.268Z,39.91
2023-03-03T06:04:12.765Z,40.24
2023-03-03T06:06:40.249Z,41.03
2023-03-03T06:09:07.606Z,40.86
2023-03-03T06:11:35.049Z,40.66
2023-03-03T06:14:02.190Z,40.25
2023-03-03T06:16:29.364Z,40.06
2023-03-03T06:18:56.851Z,40.31
2023-03-03T06:21:24.012Z,40.50
2023-03-03T06:23:51.228Z,40.39
2023-03-03T06:26:18.733Z,40.20
2023-03-03T06:28:45.881Z,40.21
2023-03-03T06:31:13.149Z,40.54
2023-03-03T06:33:42.229Z,40.79
2023-03-03T06:36:09.613Z,40.76
2023-03-03T06:38:36.779Z,40.72
2023-03-03T06:41:07.355Z,41.02
2023-03-03T06:43:35.188Z,43.42
2023-03-03T06:46:02.690Z,43.23
2023-03-03T06:48:30.670Z,42.66
2023-03-03T06:50:58.625Z,41.73
2023-03-03T06:53:25.817Z,41.24
2023-03-03T06:55:53.239Z,42.05
2023-03-03T06:58:21.050Z,42.44
2023-03-03T07:00:57.822Z,43.88
2023-03-03T07:03:43.475Z,44.73
2023-03-03T07:06:17.313Z,43.82
2023-03-03T07:08:44.737Z,43.30
2023-03-03T07:11:12.981Z,42.11
2023-03-03T07:13:40.786Z,43.03
2023-03-03T07:16:10.689Z,43.11
2023-03-03T07:18:41.061Z,42.33
2023-03-03T07:21:17.601Z,42.27
2023-03-03T07:23:45.428Z,41.76
2023-03-03T07:26:13.846Z,41.65
2023-03-03T07:28:41.743Z,41.33
2023-03-03T07:31:28.767Z,41.11
2023-03-03T07:33:56.278Z,40.91
2023-03-03T07:36:27.796Z,41.01
2023-03-03T07:38:55.664Z,41.00
2023-03-03T07:41:26.302Z,42.20
2023-03-03T07:43:57.391Z,42.05
2023-03-03T07:46:27.776Z,41.75
2023-03-03T07:48:55.439Z,40.96
2023-03-03T07:51:25.590Z,40.36
2023-03-03T07:53:54.150Z,40.36
2023-03-03T07:56:25.223Z,39.75
2023-03-03T07:58:53.210Z,40.10
2023-03-03T08:01:40.346Z,39.55
2023-03-03T08:04:16.755Z,39.42
2023-03-03T08:06:53.211Z,39.70
2023-03-03T08:09:20.610Z,39.60
2023-03-03T08:12:06.049Z,40.02
2023-03-03T08:14:34.515Z,40.06
2023-03-03T08:17:02.105Z,40.19
2023-03-03T08:19:30.266Z,40.03
2023-03-03T08:22:09.768Z,40.05
2023-03-03T08:24:38.503Z,40.13
2023-03-03T08:27:06.063Z,39.73
2023-03-03T08:29:33.535Z,40.71
2023-03-03T08:32:00.770Z,40.60
2023-03-03T08:34:28.420Z,40.40
2023-03-03T08:36:58.181Z,41.79
2023-03-03T08:39:25.332Z,41.24
2023-03-03T08:41:52.841Z,41.88
2023-03-03T08:44:20.711Z,42.21
2023-03-03T08:46:47.952Z,41.82
2023-03-03T08:49:15.441Z,42.93
2023-03-03T08:51:42.580Z,42.36
2023-03-03T08:54:09.718Z,41.70
2023-03-03T08:56:37.204Z,42.86
2023-03-03T08:59:04.444Z,43.77
2023-03-03T09:01:32.064Z,44.31
2023-03-03T09:03:59.625Z,44.39
2023-03-03T09:06:26.884Z,45.29
2023-03-03T09:08:54.961Z,43.66
2023-03-03T09:11:26.235Z,41.39
2023-03-03T09:13:59.394Z,42.36
2023-03-03T09:16:27.375Z,42.39
2023-03-03T09:18:54.605Z,41.77
2023-03-03T09:21:23.390Z,43.43
2023-03-03T09:23:50.796Z,42.62
2023-03-03T09:26:47.390Z,43.25
2023-03-03T09:29:14.784Z,42.88
2023-03-03T09:31:51.972Z,42.72
2023-03-03T09:34:23.532Z,46.54
2023-03-03T09:36:53.544Z,43.88
2023-03-03T09:39:25.327Z,45.13
2023-03-03T09:42:01.654Z,43.76
2023-03-03T09:44:42.850Z,45.19
2023-03-03T09:47:09.952Z,44.66
2023-03-03T09:49:58.856Z,43.79
2023-03-03T09:52:30.717Z,43.17
2023-03-03T09:55:04.205Z,41.60
2023-03-03T09:57:43.417Z,44.42
2023-03-03T10:00:19.957Z,42.58
2023-03-03T10:02:51.917Z,42.84
2023-03-03T10:05:39.170Z,42.86
2023-03-03T10:08:19.059Z,41.31
2023-03-03T10:10:51.426Z,39.82
2023-03-03T10:13:31.226Z,40.47
2023-03-03T10:16:13.754Z,41.14
2023-03-03T10:18:53.042Z,40.00
2023-03-03T10:21:23.792Z,42.67
2023-03-03T10:23:57.660Z,40.92
2023-03-03T10:26:49.093Z,40.43
2023-03-03T10:29:22.723Z,41.22
2023-03-03T10:31:59.177Z,41.89
2023-03-03T10:34:29.436Z,42.22
2023-03-03T10:37:05.386Z,43.44
2023-03-03T10:39:47.820Z,41.31
2023-03-03T10:42:17.183Z,42.53
2023-03-03T10:45:03.520Z,40.23
2023-03-03T10:47:33.955Z,38.46
2023-03-03T10:50:20.062Z,39.42
2023-03-03T10:52:47.706Z,40.87
2023-03-03T10:55:38.300Z,39.57
2023-03-03T10:58:12.220Z,38.70
2023-03-03T11:00:46.750Z,38.29
2023-03-03T11:03:39.553Z,43.39
2023-03-03T11:06:19.121Z,42.98
2023-03-03T11:08:49.683Z,43.32
2023-03-03T11:11:17.087Z,42.80
2023-03-03T11:13:48.149Z,43.76
2023-03-03T11:16:15.343Z,41.67
2023-03-03T11:18:55.079Z,40.48
2023-03-03T11:21:32.731Z,42.20
2023-03-03T11:24:12.283Z,40.60
2023-03-03T11:26:39.474Z,39.53
2023-03-03T11:29:13.295Z,39.68
2023-03-03T11:31:43.245Z,38.81
2023-03-03T11:34:29.184Z,40.49
2023-03-03T11:37:16.572Z,39.13
2023-03-03T11:39:43.991Z,38.48
2023-03-03T11:42:28.567Z,39.12
2023-03-03T11:44:57.123Z,39.17
2023-03-03T11:47:26.855Z,38.22
2023-03-03T11:49:56.704Z,37.11
2023-03-03T11:52:43.135Z,37.11
2023-03-03T11:55:23.653Z,39.12
2023-03-03T11:57:54.153Z,39.49
2023-03-03T12:00:21.405Z,38.33
2023-03-03T12:02:55.769Z,37.60
2023-03-03T12:05:46.372Z,36.22
2023-03-03T12:08:17.729Z,35.52
2023-03-03T12:10:45.146Z,37.38
2023-03-03T12:13:31.336Z,36.77
2023-03-03T12:16:11.498Z,36.65
2023-03-03T12:19:02.144Z,35.46
2023-03-03T12:21:29.859Z,35.72
2023-03-03T12:24:03.030Z,36.00
2023-03-03T12:26:37.398Z,35.89
2023-03-03T12:29:04.892Z,38.74
2023-03-03T12:31:35.543Z,38.37
2023-03-03T12:34:05.411Z,38.88
2023-03-03T12:36:35.859Z,38.31
2023-03-03T12:39:25.362Z,37.13
2023-03-03T12:42:04.963Z,36.91
2023-03-03T12:44:37.521Z,38.08
2023-03-03T12:47:08.024Z,37.55
2023-03-03T12:49:44.101Z,37.02
2023-03-03T12:52:36.229Z,36.09
2023-03-03T12:55:10.390Z,34.79
2023-03-03T12:57:56.638Z,36.46
2023-03-03T13:00:42.657Z,34.77
2023-03-03T13:03:10.441Z,32.88
2023-03-03T13:05:50.183Z,33.37
2023-03-03T13:08:20.403Z,34.69
2023-03-03T13:10:56.876Z,34.30
2023-03-03T13:13:27.032Z,33.88
2023-03-03T13:15:56.066Z,32.97
2023-03-03T13:18:23.663Z,32.10
2023-03-03T13:20:56.084Z,33.50
2023-03-03T13:23:26.590Z,33.27
2023-03-03T13:26:05.102Z,35.44
2023-03-03T13:28:43.327Z,34.02
2023-03-03T13:31:13.755Z,35.22
2023-03-03T13:33:40.954Z,35.65
2023-03-03T13:36:11.782Z,38.46
2023-03-03T13:38:50.158Z,37.31
2023-03-03T13:41:36.315Z,36.27
2023-03-03T13:44:09.577Z,37.23
2023-03-03T13:46:45.317Z,36.77
2023-03-03T13:49:18.988Z,36.50
2023-03-03T13:51:58.602Z,36.69
2023-03-03T13:54:44.139Z,34.92
2023-03-03T13:57:11.300Z,35.22
2023-03-03T13:59:57.457Z,36.08
2023-03-03T14:02:46.139Z,33.99
2023-03-03T14:05:15.751Z,32.96
2023-03-03T14:07:45.474Z,33.16
2023-03-03T14:10:21.849Z,32.74
2023-03-03T14:13:05.631Z,31.62
2023-03-03T14:15:36.982Z,34.46
2023-03-03T14:18:23.015Z,32.87
2023-03-03T14:20:51.689Z,32.13
2023-03-03T14:23:21.729Z,33.00
2023-03-03T14:25:58.068Z,32.36
2023-03-03T14:28:26.762Z,31.84
2023-03-03T14:30:56.732Z,32.32
2023-03-03T14:33:30.265Z,33.17
2023-03-03T14:36:00.296Z,33.13
2023-03-03T14:38:34.626Z,31.83
2023-03-03T14:41:22.175Z,32.89
2023-03-03T14:44:00.663Z,33.66
2023-03-03T14:46:31.474Z,32.70
2023-03-03T14:49:17.767Z,31.62
2023-03-03T14:51:48.829Z,31.62
2023-03-03T14:54:21.744Z,32.22
2023-03-03T14:56:59.483Z,32.58
2023-03-03T14:59:28.422Z,32.72
2023-03-03T15:02:19.937Z,32.29
2023-03-03T15:04:48.879Z,31.29
2023-03-03T15:07:25.947Z,31.67
2023-03-03T15:09:53.801Z,32.46
2023-03-03T15:12:22.058Z,32.34
2023-03-03T15:14:54.328Z,31.88
2023-03-03T15:17:27.440Z,31.16
2023-03-03T15:20:15.273Z,31.51
2023-03-03T15:22:50.089Z,31.71
2023-03-03T15:25:27.610Z,31.78
2023-03-03T15:28:32.441Z,31.76
2023-03-03T15:31:13.813Z,31.49
2023-03-03T15:33:45.510Z,33.08
2023-03-03T15:36:40.429Z,32.37
2023-03-03T15:39:17.635Z,32.19
2023-03-03T15:42:09.200Z,32.05
2023-03-03T15:44:46.839Z,32.24
2023-03-03T15:47:24.474Z,31.53
2023-03-03T15:50:10.934Z,31.36
2023-03-03T15:52:38.350Z,30.86
2023-03-03T15:55:16.453Z,31.68
2023-03-03T15:57:55.573Z,31.40
2023-03-03T16:00:30.261Z,31.74
2023-03-03T16:02:59.238Z,31.84
2023-03-03T16:05:31.953Z,31.20
2023-03-03T16:07:59.650Z,30.81
2023-03-03T16:10:33.091Z,31.90
2023-03-03T16:13:16.063Z,31.65
2023-03-03T16:15:43.661Z,31.10
2023-03-03T16:18:11.074Z,31.00
2023-03-03T16:20:41.105Z,31.40
2023-03-03T16:23:11.433Z,31.73
2023-03-03T16:25:54.855Z,31.92
2023-03-03T16:28:22.303Z,31.63
2023-03-03T16:30:52.236Z,31.85
2023-03-03T16:33:19.844Z,31.67
2023-03-03T16:35:53.231Z,31.95
2023-03-03T16:38:23.405Z,31.53
2023-03-03T16:40:54.714Z,31.96
2023-03-03T16:43:43.878Z,31.57
2023-03-03T16:46:30.187Z,31.76
2023-03-03T16:48:57.826Z,32.08
2023-03-03T16:51:28.259Z,31.88
2023-03-03T16:54:10.128Z,31.83
2023-03-03T16:56:39.455Z,31.64
2023-03-03T16:59:07.066Z,31.76
2023-03-03T17:01:41.576Z,32.01
2023-03-03T17:04:17.598Z,31.47
2023-03-03T17:06:55.447Z,31.63
2023-03-03T17:09:39.655Z,31.98
2023-03-03T17:12:27.566Z,31.53
2023-03-03T17:14:56.741Z,31.88
2023-03-03T17:17:24.171Z,32.12
2023-03-03T17:19:52.484Z,32.23
2023-03-03T17:22:24.413Z,32.00
2023-03-03T17:25:00.810Z,32.29
2023-03-03T17:27:33.636Z,32.41
2023-03-03T17:30:03.979Z,32.37
2023-03-03T17:32:42.585Z,32.42
2023-03-03T17:35:21.473Z,32.23
2023-03-03T17:37:49.838Z,32.36
2023-03-03T17:40:22.716Z,32.10
2023-03-03T17:43:09.267Z,32.07
2023-03-03T17:45:38.118Z,31.95
2023-03-03T17:48:29.337Z,32.00
2023-03-03T17:50:59.497Z,32.47
2023-03-03T17:53:27.146Z,32.44
2023-03-03T17:56:14.306Z,32.46
2023-03-03T17:59:01.016Z,32.91
2023-03-03T18:01:46.936Z,32.89
2023-03-03T18:04:34.666Z,32.66
2023-03-03T18:07:08.244Z,32.84
2023-03-03T18:09:45.395Z,33.13
2023-03-03T18:12:42.413Z,33.02
2023-03-03T18:15:15.506Z,33.39
2023-03-03T18:17:50.932Z,33.29
2023-03-03T18:20:36.114Z,33.26
2023-03-03T18:23:34.227Z,33.18
2023-03-03T18:26:03.665Z,33.26
2023-03-03T18:28:40.105Z,33.22
2023-03-03T18:31:36.438Z,33.06
2023-03-03T18:34:28.912Z,33.39
2023-03-03T18:36:58.616Z,33.34
2023-03-03T18:39:47.601Z,33.38
2023-03-03T18:42:16.799Z,33.35
2023-03-03T18:44:45.709Z,33.54
2023-03-03T18:47:17.669Z,33.20
2023-03-03T18:50:21.874Z,33.66
2023-03-03T18:53:06.086Z,33.90
2023-03-03T18:55:45.566Z,33.83
2023-03-03T18:58:15.692Z,33.45
2023-03-03T19:00:51.387Z,33.70
2023-03-03T19:03:45.976Z,34.13
2023-03-03T19:06:31.318Z,34.15
2023-03-03T19:09:00.411Z,34.42
2023-03-03T19:11:48.164Z,34.07
2023-03-03T19:14:20.655Z,34.37
2023-03-03T19:16:50.584Z,34.44
2023-03-03T19:19:19.464Z,34.38
2023-03-03T19:22:13.328Z,35.39
2023-03-03T19:24:42.524Z,35.05
2023-03-03T19:27:17.098Z,34.65
2023-03-03T19:29:46.047Z,34.75
2023-03-03T19:32:32.831Z,34.49
2023-03-03T19:35:01.350Z,34.25
2023-03-03T19:37:32.031Z,34.44
2023-03-03T19:40:18.240Z,34.55
2023-03-03T19:42:49.406Z,34.94
2023-03-03T19:45:33.119Z,35.40
2023-03-03T19:48:12.648Z,35.45
2023-03-03T19:51:16.852Z,35.27
2023-03-03T19:53:52.452Z,35.92
2023-03-03T19:56:27.147Z,35.23
2023-03-03T19:59:02.641Z,34.75
2023-03-03T20:01:54.429Z,35.61
2023-03-03T20:04:47.757Z,35.07
2023-03-03T20:07:24.560Z,35.15
2023-03-03T20:10:11.937Z,34.86
2023-03-03T20:12:47.806Z,34.65
2023-03-03T20:15:20.313Z,34.59
2023-03-03T20:17:55.160Z,34.77
2023-03-03T20:20:30.201Z,34.86
2023-03-03T20:23:11.689Z,34.83
2023-03-03T20:25:45.995Z,34.57
2023-03-03T20:28:34.033Z,36.12
2023-03-03T20:31:06.117Z,35.14
2023-03-03T20:33:54.849Z,35.45
2023-03-03T20:36:33.815Z,35.33
2023-03-03T20:39:04.996Z,35.33
2023-03-03T20:41:37.702Z,35.57
2023-03-03T20:44:15.411Z,35.13
2023-03-03T20:46:59.047Z,35.39
2023-03-03T20:49:30.999Z,34.91
2023-03-03T20:52:00.164Z,35.35
2023-03-03T20:54:40.995Z,35.91
2023-03-03T20:57:19.589Z,35.56
2023-03-03T21:00:17.428Z,35.56
2023-03-03T21:02:53.246Z,35.44
2023-03-03T21:05:25.543Z,35.95
2023-03-03T21:07:58.733Z,35.91
2023-03-03T21:10:29.268Z,35.59
2023-03-03T21:12:58.802Z,35.82
2023-03-03T21:15:31.424Z,36.52
2023-03-03T21:18:02.000Z,36.19
2023-03-03T21:20:33.760Z,36.00
2023-03-03T21:23:05.515Z,36.01
2023-03-03T21:25:40.158Z,35.92
2023-03-03T21:28:27.305Z,35.89
2023-03-03T21:31:03.973Z,35.85
2023-03-03T21:33:45.284Z,36.33
2023-03-03T21:36:17.520Z,36.09
2023-03-03T21:38:46.277Z,36.59
2023-03-03T21:41:14.002Z,36.37
2023-03-03T21:43:41.425Z,35.87
2023-03-03T21:46:09.353Z,36.58
2023-03-03T21:48:39.690Z,36.32
2023-03-03T21:51:06.944Z,36.13
2023-03-03T21:53:35.411Z,35.74
2023-03-03T21:56:03.288Z,36.15
2023-03-03T21:58:30.454Z,36.95
2023-03-03T22:00:58.025Z,36.53
2023-03-03T22:03:25.482Z,36.51
2023-03-03T22:05:53.643Z,36.75
2023-03-03T22:08:23.425Z,36.22
2023-03-03T22:10:53.846Z,36.19
2023-03-03T22:13:21.066Z,35.63
2023-03-03T22:15:48.634Z,35.47
2023-03-03T22:18:18.318Z,35.69
2023-03-03T22:20:46.157Z,35.36
2023-03-03T22:23:13.899Z,35.41
2023-03-03T22:25:41.722Z,35.62
2023-03-03T22:28:09.138Z,35.18
2023-03-03T22:30:36.834Z,34.98
2023-03-03T22:33:04.329Z,34.98
2023-03-03T22:35:31.654Z,35.07
2023-03-03T22:37:58.927Z,35.08
2023-03-03T22:40:26.447Z,34.75
2023-03-03T22:42:53.665Z,36.05
2023-03-03T22:45:20.823Z,35.41
2023-03-03T22:47:48.341Z,35.51
2023-03-03T22:50:16.884Z,35.72
2023-03-03T22:52:44.111Z,35.70
2023-03-03T22:55:11.717Z,35.93
2023-03-03T22:57:38.902Z,35.14
2023-03-03T23:00:07.333Z,35.44
2023-03-03T23:02:34.910Z,35.81
2023-03-03T23:05:07.789Z,35.64
2023-03-03T23:07:35.472Z,35.58
2023-03-03T23:10:02.971Z,35.44
2023-03-03T23:12:30.142Z,35.63
2023-03-03T23:14:57.650Z,35.61
2023-03-03T23:17:25.015Z,35.49
2023-03-03T23:19:52.250Z,35.89
2023-03-03T23:22:19.765Z,36.16
2023-03-03T23:24:46.957Z,35.50
2023-03-03T23:27:14.236Z,35.19
2023-03-03T23:29:44.445Z,35.81
2023-03-03T23:32:11.636Z,36.51
2023-03-03T23:34:38.816Z,35.77
2023-03-03T23:37:06.263Z,36.42
2023-03-03T23:39:33.428Z,36.25
2023-03-03T23:42:00.602Z,36.01
2023-03-03T23:44:28.024Z,35.99
2023-03-03T23:46:55.227Z,35.84
2023-03-03T23:49:22.451Z,35.70
2023-03-03T23:51:49.887Z,36.08
2023-03-03T23:54:17.098Z,36.37
2023-03-03T23:56:44.250Z,36.48
2023-03-03T23:59:11.698Z,36.56
